Time;durP1;ratioP1;P1;durP2;ratioP2;P2;SDS_P1;SDS_P2;PMS_P1;PMS_P2;Temp;Humidity;BMP_temperature;BMP_pressure;BME280_temperature;BME280_humidity;BME280_pressure;Samples;Min_cycle;Max_cycle;Signal;HPM_P1;HPM_P2
2022/01/30 00:00:18;;;;;;;37.17;15.57;;;6.10;57.70;;;;;;6261521;28;20028;-68
2022/01/30 00:03:19;;;;;;;43.40;16.15;;;6.10;57.70;;;;;;6245841;28;20037;-68
2022/01/30 00:06:20;;;;;;;46.47;15.82;;;6.20;57.70;;;;;;6262992;28;20465;-68
2022/01/30 00:09:22;;;;;;;43.60;15.70;;;6.20;57.60;;;;;;6262167;28;20040;-68
2022/01/30 00:12:35;;;;;;;41.95;15.10;;;6.20;57.60;;;;;;6257361;28;20544;-68
2022/01/30 00:15:47;;;;;;;47.30;15.85;;;6.20;57.50;;;;;;6270424;28;20120;-69
2022/01/30 00:19:00;;;;;;;38.33;13.65;;;6.20;57.50;;;;;;6274808;28;20566;-69
2022/01/30 00:22:53;;;;;;;47.22;15.65;;;6.30;57.40;;;;;;6275180;28;21031;-68
2022/01/30 00:25:33;;;;;;;40.30;14.32;;;6.20;57.30;;;;;;6268133;28;20045;-68
2022/01/30 00:28:34;;;;;;;49.47;14.55;;;6.20;57.30;;;;;;6270501;28;20035;-68
2022/01/30 00:31:37;;;;;;;50.40;16.23;;;6.20;57.30;;;;;;6284599;28;20640;-68
2022/01/30 00:34:39;;;;;;;39.20;15.00;;;6.20;57.30;;;;;;6287017;28;20047;-68
2022/01/30 00:37:42;;;;;;;46.33;15.32;;;6.10;57.40;;;;;;6286755;28;20037;-68
2022/01/30 00:40:44;;;;;;;43.95;14.70;;;6.20;57.50;;;;;;6285936;28;20025;-68
2022/01/30 00:43:45;;;;;;;40.47;14.40;;;6.20;57.40;;;;;;6279642;28;20035;-68
2022/01/30 00:46:46;;;;;;;47.88;19.02;;;6.30;57.40;;;;;;6281060;28;20048;-68
2022/01/30 00:49:47;;;;;;;48.70;16.35;;;6.30;57.30;;;;;;6284704;28;20155;-69
2022/01/30 00:52:53;;;;;;;43.13;14.20;;;6.30;57.20;;;;;;6268965;28;20028;-68
2022/01/30 00:55:54;;;;;;;49.03;16.08;;;6.40;57.10;;;;;;6278943;28;20017;-68
2022/01/30 00:58:54;;;;;;;46.50;15.65;;;6.40;57.00;;;;;;6286230;28;20031;-67
2022/01/30 01:01:55;;;;;;;47.28;15.85;;;6.40;56.90;;;;;;6286030;28;20029;-68
2022/01/30 01:05:01;;;;;;;44.20;14.73;;;6.40;56.90;;;;;;6265144;28;20029;-69
2022/01/30 01:24:46;;;;;;;52.13;18.20;;;6.40;57.10;;;;;;6152989;28;20560;-69
2022/01/30 01:27:47;;;;;;;48.92;17.50;;;6.40;56.80;;;;;;6153421;28;20110;-67
2022/01/30 01:30:48;;;;;;;54.38;17.35;;;6.30;56.80;;;;;;6132124;28;20404;-67
2022/01/30 01:34:07;;;;;;;46.53;16.77;;;6.30;56.90;;;;;;6151667;28;20042;-67
2022/01/30 01:37:10;;;;;;;48.33;16.30;;;6.30;56.90;;;;;;6153161;28;20047;-68
2022/01/30 01:40:11;;;;;;;55.13;17.85;;;6.30;56.90;;;;;;6163329;28;20061;-67
2022/01/30 01:43:12;;;;;;;66.63;17.65;;;6.30;56.90;;;;;;6142727;28;20043;-68
2022/01/30 01:46:18;;;;;;;44.65;14.40;;;6.30;57.40;;;;;;6237844;28;20043;-68
2022/01/30 01:49:24;;;;;;;52.28;16.52;;;6.30;56.80;;;;;;6265568;28;20625;-68
2022/01/30 01:52:26;;;;;;;46.22;16.15;;;6.30;56.80;;;;;;6270243;28;20472;-67
2022/01/30 01:55:27;;;;;;;48.28;15.98;;;6.30;56.80;;;;;;6266542;28;20033;-69
2022/01/30 01:58:28;;;;;;;48.47;15.70;;;6.20;56.80;;;;;;6246764;28;20055;-67
2022/01/30 02:01:58;;;;;;;47.78;15.73;;;6.30;56.80;;;;;;6283777;28;20111;-68
2022/01/30 02:05:02;;;;;;;45.70;15.50;;;6.20;56.80;;;;;;6270183;28;20040;-67
2022/01/30 02:14:38;;;;;;;52.53;15.52;;;6.10;57.20;;;;;;6268987;28;20071;-68
2022/01/30 02:24:02;;;;;;;44.50;14.85;;;6.00;57.10;;;;;;6267222;28;20025;-68
2022/01/30 02:27:05;;;;;;;44.05;15.25;;;6.00;57.30;;;;;;6272319;28;20507;-68
2022/01/30 02:30:16;;;;;;;38.45;14.98;;;6.00;57.30;;;;;;6284690;28;20520;-68
2022/01/30 02:33:17;;;;;;;47.13;16.48;;;6.00;57.30;;;;;;6256398;28;20343;-69
2022/01/30 02:36:17;;;;;;;48.08;13.95;;;6.00;57.30;;;;;;6271727;28;20036;-67
2022/01/30 02:39:19;;;;;;;49.30;14.57;;;5.90;57.40;;;;;;6271920;28;20031;-68
2022/01/30 02:42:24;;;;;;;46.08;15.07;;;5.90;57.50;;;;;;6275817;28;20021;-68
2022/01/30 02:45:29;;;;;;;46.60;16.23;;;5.90;57.50;;;;;;6272074;28;20012;-68
2022/01/30 02:48:52;;;;;;;41.92;16.42;;;5.90;57.50;;;;;;6257044;28;20027;-68
2022/01/30 02:51:59;;;;;;;45.55;16.50;;;5.80;58.00;;;;;;6272749;28;20105;-68
2022/01/30 02:55:00;;;;;;;50.25;15.77;;;5.80;57.40;;;;;;6273392;28;20032;-68
2022/01/30 02:58:02;;;;;;;50.35;17.02;;;5.80;57.40;;;;;;6271821;28;20111;-68
2022/01/30 03:01:03;;;;;;;44.67;15.30;;;5.80;57.40;;;;;;6253779;28;20117;-68
2022/01/30 03:04:05;;;;;;;49.03;15.32;;;5.90;57.50;;;;;;6291098;28;20079;-68
2022/01/30 03:07:06;;;;;;;54.90;17.08;;;5.80;57.40;;;;;;6272586;28;20095;-68
2022/01/30 03:10:15;;;;;;;48.80;16.52;;;5.80;57.50;;;;;;6269848;28;20071;-68
2022/01/30 03:13:16;;;;;;;54.35;17.35;;;5.80;57.50;;;;;;6269384;28;20154;-68
2022/01/30 03:16:17;;;;;;;57.33;17.85;;;5.80;57.60;;;;;;6273275;28;20530;-68
2022/01/30 03:19:18;;;;;;;61.92;18.20;;;5.80;57.50;;;;;;6268076;28;20025;-68
2022/01/30 03:22:18;;;;;;;51.17;16.50;;;5.80;57.50;;;;;;6269487;28;20060;-67
2022/01/30 03:25:19;;;;;;;66.20;18.35;;;5.90;57.50;;;;;;6265905;28;20017;-68
2022/01/30 03:28:31;;;;;;;45.55;16.45;;;5.90;57.50;;;;;;6270442;28;20511;-68
2022/01/30 03:31:42;;;;;;;51.97;17.15;;;5.90;57.50;;;;;;6287306;28;20044;-68
2022/01/30 03:34:44;;;;;;;45.47;15.50;;;6.00;57.50;;;;;;6254548;28;20037;-67
2022/01/30 03:37:45;;;;;;;42.50;16.05;;;6.00;57.40;;;;;;6274801;28;20614;-67
2022/01/30 03:40:47;;;;;;;47.03;16.02;;;6.00;57.30;;;;;;6251545;28;20025;-67
2022/01/30 03:43:48;;;;;;;47.38;15.48;;;6.00;57.30;;;;;;6266815;28;20020;-67
2022/01/30 03:46:50;;;;;;;55.05;16.05;;;6.00;57.20;;;;;;6264697;28;20024;-68
2022/01/30 03:49:51;;;;;;;47.72;16.20;;;6.00;57.20;;;;;;6271417;28;20043;-68
2022/01/30 03:52:54;;;;;;;49.20;16.80;;;6.00;57.20;;;;;;6284485;28;20035;-68
2022/01/30 03:55:56;;;;;;;53.00;16.75;;;5.90;57.20;;;;;;6271551;28;20032;-68
2022/01/30 03:59:02;;;;;;;51.50;17.73;;;5.90;57.20;;;;;;6271647;28;20025;-68
2022/01/30 04:02:04;;;;;;;57.65;17.45;;;5.90;57.30;;;;;;6269112;28;20021;-68
2022/01/30 04:05:05;;;;;;;51.60;16.40;;;5.90;57.30;;;;;;6268405;28;20086;-68
2022/01/30 04:08:07;;;;;;;62.95;15.68;;;5.90;57.30;;;;;;6258521;28;20020;-68
2022/01/30 04:11:13;;;;;;;50.33;15.27;;;5.90;57.30;;;;;;6270731;28;20053;-68
2022/01/30 04:14:29;;;;;;;47.45;16.27;;;5.90;57.30;;;;;;6255545;28;20094;-68
2022/01/30 04:17:40;;;;;;;55.17;18.45;;;6.00;57.40;;;;;;6256314;28;20024;-68
2022/01/30 04:20:47;;;;;;;50.88;18.58;;;6.00;57.30;;;;;;6272500;28;20027;-68
2022/01/30 04:23:58;;;;;;;58.30;18.05;;;5.90;57.30;;;;;;6255552;28;20085;-68
2022/01/30 04:27:25;;;;;;;51.03;15.45;;;6.00;57.30;;;;;;6272648;28;20078;-68
2022/01/30 04:30:29;;;;;;;55.67;17.67;;;6.00;57.30;;;;;;6284613;28;20486;-68
2022/01/30 04:33:56;;;;;;;55.83;17.88;;;5.90;57.20;;;;;;6254691;28;20570;-68
2022/01/30 04:37:26;;;;;;;51.75;16.58;;;5.90;57.30;;;;;;6270600;28;20505;-68
2022/01/30 05:06:08;;;;;;;51.13;16.42;;;5.70;57.50;;;;;;6236836;28;20033;-68
2022/01/30 05:09:17;;;;;;;58.15;17.10;;;5.60;57.60;;;;;;6221626;28;20061;-68
2022/01/30 05:12:46;;;;;;;59.63;16.95;;;5.60;57.70;;;;;;6222277;28;20466;-68
2022/01/30 05:16:05;;;;;;;53.47;15.60;;;5.60;57.80;;;;;;6208029;28;20025;-68
2022/01/30 05:19:32;;;;;;;45.88;16.98;;;5.60;57.80;;;;;;6264945;28;20044;-69
2022/01/30 05:22:52;;;;;;;56.28;18.58;;;5.60;57.80;;;;;;6272897;28;20037;-68
2022/01/30 05:26:08;;;;;;;51.90;17.13;;;5.50;57.80;;;;;;6272800;28;20056;-68
2022/01/30 05:29:14;;;;;;;58.80;16.60;;;5.50;57.90;;;;;;6274508;28;20037;-68
2022/01/30 05:32:26;;;;;;;54.55;17.60;;;5.50;58.00;;;;;;6282142;28;20086;-68
2022/01/30 05:35:48;;;;;;;54.33;16.67;;;5.40;58.10;;;;;;6276492;28;20120;-68
2022/01/30 05:39:18;;;;;;;58.28;17.70;;;5.50;58.10;;;;;;6273783;28;20350;-69
2022/01/30 05:42:39;;;;;;;64.82;18.75;;;5.50;58.10;;;;;;6181630;28;20142;-67
2022/01/30 05:46:06;;;;;;;58.85;18.10;;;5.50;58.10;;;;;;6180058;28;20068;-68
2022/01/30 05:49:27;;;;;;;54.78;17.67;;;5.50;58.70;;;;;;6177304;28;20042;-68
2022/01/30 05:52:51;;;;;;;62.95;18.23;;;5.50;58.10;;;;;;6142344;29;20520;-68
2022/01/30 05:56:03;;;;;;;55.05;16.60;;;5.40;58.20;;;;;;6142171;29;20034;-67
2022/01/30 05:59:05;;;;;;;58.90;16.73;;;5.40;58.30;;;;;;6142134;28;20042;-68
2022/01/30 06:02:05;;;;;;;61.22;16.27;;;5.40;58.30;;;;;;6142664;29;20049;-68
2022/01/30 06:05:08;;;;;;;52.58;17.65;;;5.40;58.40;;;;;;6142708;29;20043;-68
2022/01/30 06:08:13;;;;;;;63.05;18.30;;;5.40;58.40;;;;;;6142781;29;20027;-68
2022/01/30 06:11:14;;;;;;;55.53;19.95;;;5.40;58.40;;;;;;6134350;29;20059;-68
2022/01/30 06:14:19;;;;;;;50.90;16.52;;;5.40;58.50;;;;;;6125316;28;20521;-68
2022/01/30 06:17:21;;;;;;;68.65;18.65;;;5.40;58.60;;;;;;6142065;29;20504;-68
2022/01/30 06:20:42;;;;;;;65.40;18.48;;;5.30;58.60;;;;;;6147431;28;20049;-68
2022/01/30 06:24:02;;;;;;;56.38;15.88;;;5.30;58.70;;;;;;6150779;28;20448;-68
2022/01/30 06:27:21;;;;;;;57.65;16.02;;;5.30;58.80;;;;;;6151204;28;20444;-68
2022/01/30 06:30:36;;;;;;;72.72;17.25;;;5.30;58.90;;;;;;6185502;28;20033;-68
2022/01/30 06:33:55;;;;;;;46.63;16.30;;;5.30;58.90;;;;;;6213193;28;20451;-68
2022/01/30 06:37:15;;;;;;;36.63;14.23;;;5.30;59.00;;;;;;6182735;28;20073;-69
2022/01/30 06:40:35;;;;;;;47.72;15.32;;;5.20;59.00;;;;;;6197489;28;20084;-68
2022/01/30 06:43:55;;;;;;;45.90;14.77;;;5.20;59.00;;;;;;6204533;28;20287;-68
2022/01/30 06:47:19;;;;;;;56.35;17.80;;;5.10;59.20;;;;;;6091684;29;20082;-67
2022/01/30 06:50:38;;;;;;;59.88;17.42;;;5.00;59.20;;;;;;6094756;29;20458;-68
2022/01/30 06:53:57;;;;;;;56.58;16.83;;;5.00;59.30;;;;;;6094676;29;20320;-67
2022/01/30 06:57:18;;;;;;;60.60;15.05;;;5.00;59.50;;;;;;6077656;29;20040;-68
2022/01/30 07:00:38;;;;;;;51.92;16.67;;;5.00;59.60;;;;;;6116954;29;20043;-67
2022/01/30 07:04:17;;;;;;;52.90;18.33;;;5.00;59.60;;;;;;6117258;29;20088;-67
2022/01/30 07:07:37;;;;;;;57.20;16.95;;;5.00;59.60;;;;;;6118184;29;20048;-67
2022/01/30 07:10:39;;;;;;;44.17;14.57;;;5.00;59.50;;;;;;6118972;29;20054;-67
2022/01/30 07:13:41;;;;;;;64.15;18.65;;;5.00;59.60;;;;;;6121943;29;20047;-67
2022/01/30 07:16:41;;;;;;;56.13;17.10;;;5.00;59.60;;;;;;6119539;29;20042;-67
2022/01/30 07:19:42;;;;;;;41.65;14.02;;;5.00;59.60;;;;;;6105438;29;20028;-68
2022/01/30 07:22:43;;;;;;;56.30;17.02;;;4.90;59.60;;;;;;6125134;28;20433;-68
2022/01/30 07:25:44;;;;;;;54.38;15.93;;;4.90;59.60;;;;;;6173425;28;20406;-67
2022/01/30 07:28:45;;;;;;;47.60;15.35;;;4.90;59.80;;;;;;6189098;28;20043;-67
2022/01/30 07:31:46;;;;;;;50.17;15.18;;;4.90;59.80;;;;;;6173052;28;20041;-67
2022/01/30 07:34:50;;;;;;;40.83;15.45;;;5.00;59.90;;;;;;6255480;28;20098;-68
2022/01/30 07:37:51;;;;;;;45.85;16.05;;;5.00;59.90;;;;;;6286543;28;20044;-68
2022/01/30 07:40:52;;;;;;;51.53;14.15;;;5.00;59.80;;;;;;6289544;28;20056;-68
2022/01/30 07:43:53;;;;;;;42.45;14.57;;;5.10;59.80;;;;;;6287701;28;20143;-67
2022/01/30 07:46:58;;;;;;;43.17;14.38;;;5.10;59.80;;;;;;6288529;28;20449;-68
2022/01/30 07:49:59;;;;;;;48.15;15.02;;;5.20;59.70;;;;;;6287687;28;20017;-68
2022/01/30 07:53:00;;;;;;;56.50;14.95;;;5.20;59.60;;;;;;6282048;28;20067;-67
2022/01/30 07:56:01;;;;;;;48.00;14.68;;;5.30;59.60;;;;;;6286767;28;20644;-67
2022/01/30 07:59:02;;;;;;;49.95;14.80;;;5.30;59.50;;;;;;6285357;28;20039;-67
2022/01/30 08:02:03;;;;;;;47.65;15.38;;;5.30;59.50;;;;;;6286166;28;20671;-67
2022/01/30 08:05:05;;;;;;;44.97;13.73;;;5.30;59.50;;;;;;6271695;28;20418;-67
2022/01/30 08:08:06;;;;;;;56.75;16.17;;;5.30;59.30;;;;;;6269348;28;20100;-67
2022/01/30 08:11:10;;;;;;;38.63;14.05;;;5.30;59.30;;;;;;6281913;28;20021;-67
2022/01/30 08:14:12;;;;;;;51.53;13.75;;;5.40;59.40;;;;;;6284582;28;20319;-68
2022/01/30 08:17:20;;;;;;;47.58;15.05;;;5.40;59.30;;;;;;6256072;28;20032;-68
2022/01/30 08:20:24;;;;;;;43.97;14.18;;;5.50;59.30;;;;;;6281000;28;20062;-68
2022/01/30 08:23:28;;;;;;;60.42;16.10;;;5.50;59.20;;;;;;6269114;28;20610;-68
2022/01/30 08:26:29;;;;;;;49.17;13.98;;;5.60;59.20;;;;;;6268870;28;20025;-67
2022/01/30 08:29:30;;;;;;;51.03;16.63;;;5.60;59.10;;;;;;6284557;28;20013;-69
2022/01/30 08:32:30;;;;;;;59.90;18.02;;;5.60;59.20;;;;;;6268016;28;20048;-68
2022/01/30 08:35:32;;;;;;;42.08;13.88;;;5.70;59.20;;;;;;6283833;28;20556;-68
2022/01/30 08:38:33;;;;;;;59.42;17.13;;;5.70;59.10;;;;;;6255395;28;20025;-69
2022/01/30 08:41:34;;;;;;;57.60;16.83;;;5.70;59.00;;;;;;6270903;28;20052;-67
2022/01/30 08:44:35;;;;;;;45.75;15.15;;;5.70;59.10;;;;;;6264127;28;20505;-68
2022/01/30 08:47:36;;;;;;;49.53;17.08;;;5.70;59.00;;;;;;6264980;28;20083;-69
2022/01/30 08:50:37;;;;;;;53.38;16.10;;;5.70;59.10;;;;;;6268485;28;20170;-69
2022/01/30 08:53:38;;;;;;;46.03;14.88;;;5.70;59.10;;;;;;6249132;28;20021;-68
2022/01/30 08:56:39;;;;;;;45.75;15.10;;;5.70;59.10;;;;;;6271122;28;20051;-69
2022/01/30 08:59:40;;;;;;;50.60;14.68;;;5.70;59.20;;;;;;6272712;28;20036;-68
2022/01/30 09:02:42;;;;;;;41.75;14.70;;;5.60;59.10;;;;;;6277603;28;20045;-68
2022/01/30 09:05:43;;;;;;;56.97;16.00;;;5.60;59.10;;;;;;6267004;28;20446;-68
2022/01/30 09:08:44;;;;;;;45.13;15.55;;;5.60;59.10;;;;;;6262176;28;20068;-70
2022/01/30 09:11:45;;;;;;;44.17;15.32;;;5.50;59.10;;;;;;6267266;28;20475;-69
2022/01/30 09:14:46;;;;;;;49.67;16.27;;;5.50;59.30;;;;;;6286342;28;20021;-70
2022/01/30 09:17:47;;;;;;;52.08;14.50;;;5.60;59.30;;;;;;6254544;28;20055;-69
2022/01/30 09:20:48;;;;;;;47.78;14.63;;;5.60;59.30;;;;;;6287400;28;20021;-69
2022/01/30 09:23:49;;;;;;;48.22;14.38;;;5.60;59.40;;;;;;6268223;28;20055;-68
2022/01/30 09:26:50;;;;;;;54.72;16.48;;;5.70;59.30;;;;;;6280290;28;20096;-69
2022/01/30 09:29:51;;;;;;;48.85;14.95;;;5.80;59.20;;;;;;6258829;28;20539;-70
2022/01/30 09:32:52;;;;;;;39.90;13.02;;;5.80;59.00;;;;;;6262917;28;20063;-69
2022/01/30 09:35:53;;;;;;;53.88;16.42;;;5.90;59.00;;;;;;6258181;28;20298;-69
2022/01/30 09:38:53;;;;;;;52.13;16.45;;;5.90;58.80;;;;;;6270900;28;20032;-68
2022/01/30 09:41:55;;;;;;;65.10;17.75;;;6.00;58.90;;;;;;6258151;28;20078;-68
2022/01/30 09:45:00;;;;;;;53.05;16.52;;;6.10;58.80;;;;;;6260898;28;20048;-68
2022/01/30 09:48:01;;;;;;;48.10;15.60;;;6.30;58.60;;;;;;6261845;28;20520;-71
2022/01/30 09:51:06;;;;;;;56.65;15.07;;;6.40;58.40;;;;;;6261826;28;20032;-71
2022/01/30 09:54:08;;;;;;;55.85;15.65;;;6.50;58.20;;;;;;6272414;28;20025;-70
2022/01/30 09:57:08;;;;;;;76.85;23.23;;;6.60;58.00;;;;;;6261564;28;20489;-69
2022/01/30 10:00:11;;;;;;;53.80;17.00;;;6.80;57.90;;;;;;6263038;28;20035;-69
2022/01/30 10:03:19;;;;;;;58.97;15.90;;;6.90;57.60;;;;;;6265028;28;20133;-68
2022/01/30 10:06:23;;;;;;;63.38;19.52;;;6.90;57.40;;;;;;6286091;28;20016;-68
2022/01/30 10:09:32;;;;;;;55.50;16.25;;;7.00;57.40;;;;;;6284635;28;20028;-68
2022/01/30 10:12:34;;;;;;;52.10;15.50;;;7.10;57.20;;;;;;6267754;28;20104;-69
2022/01/30 10:15:50;;;;;;;55.85;16.27;;;7.20;57.00;;;;;;6279361;28;20025;-69
2022/01/30 10:18:52;;;;;;;46.83;16.60;;;7.30;56.90;;;;;;6291134;28;20029;-69
2022/01/30 10:22:09;;;;;;;55.00;15.63;;;7.40;56.60;;;;;;6272769;28;20631;-69
2022/01/30 10:25:26;;;;;;;51.47;16.23;;;7.50;56.10;;;;;;6280534;28;20025;-68
2022/01/30 10:28:30;;;;;;;52.15;15.20;;;7.50;55.80;;;;;;6270607;28;20028;-69
2022/01/30 10:31:31;;;;;;;49.25;15.10;;;7.40;55.80;;;;;;6276889;28;20031;-71
2022/01/30 10:34:34;;;;;;;48.13;16.73;;;7.40;55.80;;;;;;6276277;28;20366;-69
2022/01/30 10:37:39;;;;;;;60.08;18.63;;;7.40;55.80;;;;;;6281239;28;20485;-69
2022/01/30 10:40:55;;;;;;;121.03;18.17;;;7.30;55.80;;;;;;6278432;28;20029;-70
2022/01/30 10:44:03;;;;;;;55.53;17.20;;;7.20;55.80;;;;;;6271736;28;20060;-69
2022/01/30 10:47:04;;;;;;;49.63;15.15;;;7.20;56.00;;;;;;6272248;28;20016;-69
2022/01/30 10:50:14;;;;;;;53.33;15.00;;;7.20;56.00;;;;;;6277970;28;20056;-71
2022/01/30 10:53:17;;;;;;;59.13;17.27;;;7.20;55.90;;;;;;6275715;28;20025;-70
2022/01/30 10:56:26;;;;;;;49.28;16.67;;;7.20;56.10;;;;;;6270128;28;20037;-73
2022/01/30 10:59:27;;;;;;;46.05;16.23;;;7.30;56.10;;;;;;6275603;28;20094;-70
2022/01/30 11:02:35;;;;;;;43.47;14.48;;;7.40;56.00;;;;;;6277659;28;20052;-72
2022/01/30 11:05:52;;;;;;;;;;;7.50;55.90;;;;;;6287501;28;20033;-70
2022/01/30 11:08:54;;;;;;;54.65;16.25;;;7.50;55.50;;;;;;6264093;28;19908;-71
2022/01/30 11:12:01;;;;;;;54.20;19.10;;;7.50;55.60;;;;;;6283072;28;20032;-70
2022/01/30 11:15:34;;;;;;;69.30;23.20;;;7.60;56.20;;;;;;6259802;28;20052;-69
2022/01/30 11:18:29;;;;;;;45.95;14.20;;;7.70;55.40;;;;;;6273975;28;20028;-69
2022/01/30 11:21:30;;;;;;;47.83;15.18;;;7.60;55.20;;;;;;6273677;28;20017;-67
2022/01/30 11:24:37;;;;;;;46.60;16.40;;;7.50;55.20;;;;;;6271758;28;20048;-68
2022/01/30 11:27:43;;;;;;;50.90;15.60;;;7.50;55.50;;;;;;6278652;28;20104;-68
2022/01/30 11:30:44;;;;;;;52.05;16.60;;;7.70;55.80;;;;;;6248991;28;20124;-68
2022/01/30 11:33:45;;;;;;;51.63;16.42;;;8.20;55.10;;;;;;6276516;28;20048;-68
2022/01/30 11:36:48;;;;;;;59.10;16.63;;;8.40;54.30;;;;;;6256114;28;20029;-68
2022/01/30 11:39:52;;;;;;;71.05;23.83;;;8.70;54.00;;;;;;6277749;28;20129;-70
2022/01/30 11:42:53;;;;;;;70.45;22.23;;;9.10;53.50;;;;;;6261515;28;20040;-68
2022/01/30 11:46:23;;;;;;;69.50;20.27;;;9.30;52.30;;;;;;6255021;28;20087;-71
2022/01/30 11:49:38;;;;;;;69.78;19.85;;;9.40;52.20;;;;;;6170828;28;20043;-69
2022/01/30 11:53:05;;;;;;;83.95;22.67;;;9.60;52.00;;;;;;6177040;28;20112;-69
2022/01/30 11:56:06;;;;;;;55.38;16.38;;;10.20;51.30;;;;;;6159976;28;20133;-71
2022/01/30 11:59:07;;;;;;;56.60;17.40;;;10.70;49.70;;;;;;6190227;28;20034;-70
2022/01/30 12:02:29;;;;;;;52.33;16.35;;;11.00;48.40;;;;;;6183800;28;20033;-72
2022/01/30 12:05:35;;;;;;;50.90;16.90;;;11.40;47.30;;;;;;6176572;28;20100;-72
2022/01/30 12:08:45;;;;;;;57.08;16.65;;;11.80;47.00;;;;;;6196828;28;20034;-71
2022/01/30 12:11:49;;;;;;;61.10;17.85;;;12.10;45.80;;;;;;6207775;28;20053;-71
2022/01/30 12:14:51;;;;;;;50.63;17.45;;;11.90;46.00;;;;;;6195109;28;20022;-71
2022/01/30 12:17:52;;;;;;;63.15;17.65;;;11.50;46.50;;;;;;6190719;28;20034;-71
2022/01/30 12:21:05;;;;;;;60.25;17.35;;;11.20;47.10;;;;;;6211772;28;20022;-71
2022/01/30 12:24:22;;;;;;;67.10;20.85;;;10.90;47.80;;;;;;6208795;28;20165;-70
2022/01/30 12:27:46;;;;;;;56.63;18.70;;;10.60;48.20;;;;;;6265255;28;20024;-70
2022/01/30 12:30:49;;;;;;;58.08;18.08;;;10.40;48.90;;;;;;6275660;28;20017;-71
2022/01/30 12:34:05;;;;;;;51.35;19.33;;;10.20;49.10;;;;;;6273107;28;20148;-72
2022/01/30 12:37:06;;;;;;;50.45;17.02;;;10.00;49.30;;;;;;6273830;28;20021;-71
2022/01/30 12:40:10;;;;;;;54.47;17.98;;;9.70;49.30;;;;;;6260817;28;20116;-71
2022/01/30 12:43:11;;;;;;;54.20;16.73;;;9.40;49.90;;;;;;6273556;28;20075;-71
2022/01/30 12:46:13;;;;;;;49.53;16.17;;;9.30;50.40;;;;;;6263656;28;20445;-73
2022/01/30 12:49:21;;;;;;;43.92;14.90;;;9.20;50.50;;;;;;6278354;28;20047;-73
2022/01/30 12:55:30;;;;;;;48.63;14.93;;;8.70;50.90;;;;;;6268106;28;20385;-74
2022/01/30 12:58:39;;;;;;;52.53;16.92;;;8.60;51.40;;;;;;6277756;28;20629;-73
2022/01/30 13:01:46;;;;;;;49.15;15.38;;;8.50;51.80;;;;;;6269082;28;20104;-74
2022/01/30 13:05:03;;;;;;;61.17;17.42;;;8.50;52.20;;;;;;6276211;28;20065;-73
2022/01/30 13:08:04;;;;;;;45.78;14.35;;;8.50;52.30;;;;;;6234364;28;20108;-74
2022/01/30 13:11:23;;;;;;;53.58;17.27;;;8.50;52.20;;;;;;6268723;28;20041;-72
2022/01/30 13:14:37;;;;;;;47.08;16.70;;;8.50;52.30;;;;;;6265117;28;20025;-71
2022/01/30 13:17:39;;;;;;;49.67;15.65;;;8.50;52.40;;;;;;6271805;28;20033;-72
2022/01/30 13:20:40;;;;;;;47.97;15.55;;;8.60;52.40;;;;;;6250112;28;20033;-71
2022/01/30 13:23:47;;;;;;;54.00;15.50;;;8.60;52.30;;;;;;6258245;28;20035;-70
2022/01/30 13:26:55;;;;;;;54.73;17.67;;;8.50;52.20;;;;;;6275420;28;20382;-71
2022/01/30 13:29:57;;;;;;;45.58;14.95;;;8.40;52.40;;;;;;6258941;28;20028;-72
2022/01/30 13:32:58;;;;;;;51.92;16.15;;;8.40;52.60;;;;;;6255736;28;20020;-71
2022/01/30 13:35:59;;;;;;;49.30;14.98;;;8.40;52.70;;;;;;6258160;28;20025;-70
2022/01/30 13:39:05;;;;;;;55.22;16.83;;;8.40;52.70;;;;;;6283370;28;20034;-70
2022/01/30 13:48:43;;;;;;;49.67;15.15;;;8.60;52.80;;;;;;6276664;28;20033;-72
2022/01/30 13:51:44;;;;;;;45.63;15.40;;;8.70;52.70;;;;;;6254880;28;20419;-72
2022/01/30 13:55:07;;;;;;;51.58;15.38;;;8.80;52.60;;;;;;6272438;28;20440;-72
2022/01/30 13:58:08;;;;;;;47.10;15.55;;;8.90;52.50;;;;;;6257262;28;20033;-72
2022/01/30 14:01:15;;;;;;;52.47;16.63;;;8.90;52.40;;;;;;6255236;28;20021;-72
2022/01/30 14:04:16;;;;;;;52.58;17.92;;;8.90;52.40;;;;;;6270078;28;20057;-72
2022/01/30 14:07:21;;;;;;;51.38;16.48;;;8.90;53.00;;;;;;6279537;28;20109;-71
2022/01/30 14:10:27;;;;;;;43.08;14.82;;;8.90;52.40;;;;;;6272314;28;20400;-71
2022/01/30 14:13:29;;;;;;;34.28;13.13;;;8.90;52.40;;;;;;6272830;28;20024;-71
2022/01/30 14:16:50;;;;;;;45.42;14.38;;;8.80;52.50;;;;;;6271734;28;20107;-71
2022/01/30 14:20:06;;;;;;;47.55;15.48;;;8.80;53.20;;;;;;6264540;28;20481;-73
2022/01/30 14:23:11;;;;;;;46.42;15.38;;;8.80;52.70;;;;;;6283062;28;20062;-71
2022/01/30 14:26:39;;;;;;;49.83;15.07;;;8.90;52.80;;;;;;6274203;28;20021;-71
2022/01/30 14:29:40;;;;;;;37.60;13.82;;;8.90;52.80;;;;;;6277993;28;20090;-73
2022/01/30 14:32:42;;;;;;;46.13;14.07;;;9.00;52.80;;;;;;6275471;28;20538;-71
2022/01/30 14:35:43;;;;;;;47.40;14.52;;;9.00;52.70;;;;;;6277392;28;20120;-72
2022/01/30 14:38:45;;;;;;;45.00;14.32;;;9.00;52.60;;;;;;6279566;28;20036;-72
2022/01/30 14:41:47;;;;;;;52.95;15.85;;;9.10;52.60;;;;;;6261413;28;20694;-72
2022/01/30 14:44:48;;;;;;;37.33;13.25;;;9.10;52.70;;;;;;6268722;28;20040;-72
2022/01/30 14:47:49;;;;;;;43.83;14.85;;;9.20;52.70;;;;;;6281121;28;20023;-74
2022/01/30 14:50:50;;;;;;;43.60;15.05;;;9.20;52.50;;;;;;6277869;28;20509;-73
2022/01/30 14:53:51;;;;;;;39.50;14.75;;;9.20;52.50;;;;;;6281949;28;20362;-72
2022/01/30 14:56:52;;;;;;;46.17;14.43;;;9.30;52.50;;;;;;6277810;28;20029;-74
2022/01/30 14:59:53;;;;;;;41.78;13.18;;;9.30;52.40;;;;;;6280404;28;20039;-74
2022/01/30 15:02:54;;;;;;;36.90;14.27;;;9.40;52.40;;;;;;6259528;28;20041;-74
2022/01/30 15:05:54;;;;;;;43.05;14.70;;;9.40;52.30;;;;;;6258293;28;20086;-74
2022/01/30 15:08:55;;;;;;;45.90;14.75;;;9.40;52.30;;;;;;6248449;28;20078;-73
2022/01/30 15:11:57;;;;;;;41.25;13.23;;;9.40;52.30;;;;;;6280487;28;20070;-73
2022/01/30 15:14:59;;;;;;;52.10;15.32;;;9.40;52.40;;;;;;6258961;28;20033;-75
2022/01/30 15:18:07;;;;;;;58.08;20.05;;;9.50;52.40;;;;;;6253952;28;20032;-75
2022/01/30 15:21:12;;;;;;;41.08;12.68;;;9.60;52.30;;;;;;6277136;28;20457;-74
2022/01/30 15:24:13;;;;;;;46.95;13.88;;;9.60;52.30;;;;;;6270082;28;20032;-75
2022/01/30 15:27:14;;;;;;;43.80;13.00;;;9.60;52.20;;;;;;6276597;28;20025;-75
2022/01/30 15:30:15;;;;;;;37.40;12.93;;;9.60;52.30;;;;;;6259815;28;20346;-74
2022/01/30 15:33:16;;;;;;;34.35;12.57;;;9.60;52.20;;;;;;6277762;28;20551;-75
2022/01/30 15:36:17;;;;;;;55.28;17.77;;;9.60;52.20;;;;;;6254744;28;20028;-74
2022/01/30 15:39:18;;;;;;;43.30;13.23;;;9.60;52.30;;;;;;6272635;28;20112;-74
2022/01/30 15:42:19;;;;;;;44.92;13.63;;;9.60;52.20;;;;;;6260467;28;20093;-74
2022/01/30 15:51:43;;;;;;;43.53;13.43;;;9.60;52.30;;;;;;6271402;28;20044;-73
2022/01/30 15:54:43;;;;;;;36.92;13.93;;;9.60;52.30;;;;;;6255950;28;20029;-73
2022/01/30 15:57:44;;;;;;;37.95;12.10;;;9.60;52.40;;;;;;6263022;28;20031;-73
2022/01/30 16:00:45;;;;;;;46.13;16.73;;;9.60;52.40;;;;;;6258140;28;20162;-73
2022/01/30 16:03:47;;;;;;;48.08;16.05;;;9.60;53.00;;;;;;6274446;28;20045;-74
2022/01/30 16:06:51;;;;;;;50.65;16.65;;;9.60;52.50;;;;;;6270819;28;20090;-73
2022/01/30 16:09:55;;;;;;;90.18;30.15;;;9.60;52.40;;;;;;6259185;28;20066;-73
2022/01/30 16:16:00;;;;;;;64.57;21.40;;;9.60;52.50;;;;;;6269700;28;20021;-73
2022/01/30 16:19:01;;;;;;;46.33;14.98;;;9.50;52.50;;;;;;6264854;28;20455;-75
2022/01/30 16:22:02;;;;;;;49.28;14.20;;;9.60;52.70;;;;;;6278718;28;20013;-74
2022/01/30 16:25:03;;;;;;;42.55;13.05;;;9.50;52.60;;;;;;6273189;28;20450;-73
2022/01/30 16:28:05;;;;;;;38.40;12.55;;;9.50;52.60;;;;;;6254178;28;20025;-75
2022/01/30 16:31:08;;;;;;;38.92;13.48;;;9.50;52.70;;;;;;6260977;28;20036;-74
2022/01/30 16:34:09;;;;;;;43.80;12.95;;;9.50;52.70;;;;;;6254736;28;20091;-73
2022/01/30 16:37:10;;;;;;;38.97;12.98;;;9.40;52.70;;;;;;6254317;28;20029;-73
2022/01/30 16:40:11;;;;;;;35.72;13.95;;;9.40;52.70;;;;;;6271707;28;20347;-74
2022/01/30 16:43:21;;;;;;;36.88;14.63;;;9.40;52.80;;;;;;6279438;28;20029;-73
2022/01/30 16:49:28;;;;;;;40.58;13.90;;;9.40;52.80;;;;;;6257756;28;20569;-72
2022/01/30 16:52:29;;;;;;;45.50;14.45;;;9.40;52.90;;;;;;6257933;28;20037;-73
2022/01/30 16:55:32;;;;;;;46.60;15.88;;;9.40;52.90;;;;;;6267855;28;20155;-71
2022/01/30 16:58:35;;;;;;;50.33;18.00;;;9.40;53.00;;;;;;6272042;28;20041;-73
2022/01/30 17:01:36;;;;;;;49.45;15.15;;;9.40;53.00;;;;;;6253079;28;20043;-72
2022/01/30 17:04:37;;;;;;;48.10;15.93;;;9.30;53.00;;;;;;6272885;28;20151;-73
2022/01/30 17:07:38;;;;;;;50.58;16.35;;;9.30;53.10;;;;;;6277648;28;20052;-72
2022/01/30 17:10:42;;;;;;;48.53;17.55;;;9.30;53.20;;;;;;6271717;28;20017;-73